Time;durP1;ratioP1;P1;durP2;ratioP2;P2;SDS_P1;SDS_P2;PMS_P1;PMS_P2;Temp;Humidity;BMP_temperature;BMP_pressure;BME280_temperature;BME280_humidity;BME280_pressure;Samples;Min_cycle;Max_cycle;Signal;HPM_P1;HPM_P2
2021/11/24 00:01:02;;;;;;;22.17;17.77;;;;;;;1.03;77.82;100224.26;1697166;83;21688;-60
2021/11/24 00:03:29;;;;;;;24.00;17.50;;;;;;;0.99;78.07;100216.91;1696956;83;21498;-60
2021/11/24 00:05:55;;;;;;;22.98;18.07;;;;;;;0.99;78.03;100226.41;1694811;83;21058;-60
2021/11/24 00:08:22;;;;;;;21.12;17.37;;;;;;;0.98;77.94;100232.02;1688700;82;21507;-60
2021/11/24 00:10:50;;;;;;;23.10;16.25;;;;;;;0.92;77.89;100239.33;1699140;82;21506;-61
2021/11/24 00:13:17;;;;;;;20.17;16.60;;;;;;;0.92;78.02;100238.44;1695945;82;21450;-60
2021/11/24 00:15:44;;;;;;;19.60;16.07;;;;;;;0.93;78.15;100240.18;1699578;83;21538;-60
2021/11/24 00:18:11;;;;;;;21.93;16.67;;;;;;;0.86;78.30;100240.99;1699676;83;21423;-60
2021/11/24 00:20:38;;;;;;;25.40;18.03;;;;;;;0.74;78.62;100246.53;1699348;82;21597;-60
2021/11/24 00:23:05;;;;;;;22.60;17.90;;;;;;;0.68;78.75;100244.31;1704206;83;21578;-60
2021/11/24 00:25:33;;;;;;;22.42;17.02;;;;;;;0.62;79.03;100246.42;1693950;82;21823;-60
2021/11/24 00:28:00;;;;;;;24.85;18.25;;;;;;;0.60;79.50;100245.98;1698878;83;21002;-60
2021/11/24 00:30:27;;;;;;;26.52;18.05;;;;;;;0.66;79.85;100244.73;1705709;82;21535;-60
2021/11/24 00:32:55;;;;;;;25.27;18.20;;;;;;;0.68;79.70;100237.44;1703184;83;21463;-60
2021/11/24 00:35:22;;;;;;;25.70;18.48;;;;;;;0.64;79.78;100249.92;1692360;82;20943;-62
2021/11/24 00:37:49;;;;;;;25.08;17.92;;;;;;;0.66;80.03;100248.61;1703993;82;21816;-60
2021/11/24 00:40:16;;;;;;;21.85;17.20;;;;;;;0.70;80.00;100255.57;1708223;82;21537;-60
2021/11/24 00:42:43;;;;;;;23.02;17.35;;;;;;;0.79;80.00;100247.84;1699981;82;21538;-60
2021/11/24 00:45:11;;;;;;;28.77;18.82;;;;;;;0.93;79.80;100247.95;1695762;82;21454;-60
2021/11/24 00:47:38;;;;;;;22.73;16.77;;;;;;;1.01;79.56;100253.17;1703540;82;20987;-61
2021/11/24 00:50:06;;;;;;;22.42;17.55;;;;;;;0.97;79.34;100247.10;1698457;82;21807;-61
2021/11/24 00:52:33;;;;;;;25.50;19.32;;;;;;;0.94;79.51;100249.66;1691417;82;21152;-62
2021/11/24 00:55:00;;;;;;;27.32;18.25;;;;;;;0.93;79.42;100256.57;1688716;83;21459;-61
2021/11/24 00:57:27;;;;;;;25.02;18.25;;;;;;;0.93;79.55;100255.28;1690437;82;20965;-61
2021/11/24 00:59:54;;;;;;;23.52;17.77;;;;;;;1.02;79.55;100259.66;1701470;82;21416;-61
2021/11/24 01:02:21;;;;;;;;;;;;;;;1.22;79.25;100261.05;1701579;82;22131;-61
2021/11/24 01:04:48;;;;;;;25.00;17.60;;;;;;;1.19;79.26;100256.27;1700275;82;20432;-61
2021/11/24 01:07:16;;;;;;;24.60;18.30;;;;;;;1.18;79.37;100256.71;1695104;83;21569;-61
2021/11/24 01:09:43;;;;;;;23.87;18.80;;;;;;;1.16;79.11;100254.11;1698377;83;21547;-61
2021/11/24 01:12:12;;;;;;;26.48;18.87;;;;;;;1.15;78.96;100261.45;1699436;82;21513;-62
2021/11/24 01:14:41;;;;;;;26.33;19.50;;;;;;;1.14;79.07;100258.85;1700663;83;21551;-60
2021/11/24 01:17:08;;;;;;;22.07;17.50;;;;;;;1.21;79.16;100262.36;1704105;82;21439;-61
2021/11/24 01:19:35;;;;;;;23.20;18.47;;;;;;;1.35;78.90;100258.09;1697319;83;21734;-60
2021/11/24 01:22:02;;;;;;;27.30;18.30;;;;;;;1.41;78.80;100263.29;1698778;83;21424;-60
2021/11/24 01:24:29;;;;;;;22.73;17.45;;;;;;;1.38;78.69;100271.07;1697346;82;21554;-60
2021/11/24 01:26:56;;;;;;;24.98;18.85;;;;;;;1.35;78.73;100268.45;1699735;82;21775;-60
2021/11/24 01:29:23;;;;;;;24.57;19.02;;;;;;;1.34;78.63;100264.14;1702537;82;21561;-60
2021/11/24 01:31:50;;;;;;;25.50;18.90;;;;;;;1.29;78.56;100273.61;1704683;82;21857;-60
2021/11/24 01:34:17;;;;;;;22.87;16.70;;;;;;;1.33;78.66;100270.17;1684147;82;21006;-60
2021/11/24 01:36:43;;;;;;;22.07;17.50;;;;;;;1.46;78.33;100266.77;1700381;82;21519;-60
2021/11/24 01:39:11;;;;;;;24.60;17.62;;;;;;;1.46;78.22;100264.19;1702784;83;21518;-60
2021/11/24 01:41:38;;;;;;;24.12;19.12;;;;;;;1.43;78.12;100270.67;1704291;83;21628;-60
2021/11/24 01:44:06;;;;;;;25.75;19.23;;;;;;;1.39;78.03;100268.04;1695445;82;21565;-60
2021/11/24 01:46:32;;;;;;;25.60;18.87;;;;;;;1.35;77.95;100271.05;1692635;82;21549;-60
2021/11/24 01:48:59;;;;;;;26.62;18.17;;;;;;;1.30;77.94;100263.67;1688733;82;21414;-60
2021/11/24 01:51:26;;;;;;;28.92;19.90;;;;;;;1.23;77.87;100246.39;1698312;82;21813;-60
2021/11/24 01:53:53;;;;;;;25.33;19.10;;;;;;;1.41;77.64;100267.61;1695259;83;21696;-60
2021/11/24 01:56:21;;;;;;;28.17;20.27;;;;;;;1.32;77.80;100271.05;1703535;82;21625;-63
2021/11/24 01:58:48;;;;;;;25.72;18.57;;;;;;;1.24;77.96;100269.69;1691775;82;21603;-60
2021/11/24 02:01:15;;;;;;;26.97;19.57;;;;;;;1.18;78.13;100276.58;1687563;82;21554;-61
2021/11/24 02:03:42;;;;;;;28.17;19.32;;;;;;;1.12;78.24;100275.67;1694133;83;21738;-61
2021/11/24 02:06:09;;;;;;;21.63;16.73;;;;;;;1.10;78.32;100272.22;1698831;82;21479;-61
2021/11/24 02:08:36;;;;;;;28.07;18.77;;;;;;;1.14;78.19;100280.44;1696753;82;21041;-61
2021/11/24 02:11:03;;;;;;;21.62;16.95;;;;;;;1.28;78.11;100280.94;1689485;83;21419;-60
2021/11/24 02:13:30;;;;;;;21.07;16.30;;;;;;;1.27;78.06;100280.08;1693393;82;21426;-60
2021/11/24 02:15:57;;;;;;;24.75;16.60;;;;;;;1.23;78.10;100286.55;1697317;82;21821;-61
2021/11/24 02:18:24;;;;;;;25.27;18.53;;;;;;;1.15;78.19;100282.62;1697331;82;21495;-60
2021/11/24 02:20:51;;;;;;;22.43;17.70;;;;;;;1.08;78.43;100284.73;1705663;83;21002;-60
2021/11/24 02:23:18;;;;;;;19.50;14.83;;;;;;;0.97;78.72;100281.63;1692978;83;21467;-60
2021/11/24 02:25:46;;;;;;;21.20;15.85;;;;;;;1.00;78.81;100283.80;1707695;82;21719;-60
2021/11/24 02:28:15;;;;;;;21.55;15.75;;;;;;;1.12;78.78;100285.18;1697397;83;22031;-60
2021/11/24 02:30:42;;;;;;;22.40;15.10;;;;;;;1.12;78.88;100282.16;1693936;82;21050;-61
2021/11/24 02:33:09;;;;;;;17.45;13.80;;;;;;;1.08;78.88;100283.44;1696416;82;21447;-61
2021/11/24 02:35:36;;;;;;;17.12;13.98;;;;;;;1.01;79.31;100286.39;1700854;83;21060;-61
2021/11/24 02:38:06;;;;;;;17.92;13.45;;;;;;;0.97;79.30;100285.51;1695995;82;21001;-61
2021/11/24 02:40:33;;;;;;;15.90;12.47;;;;;;;0.95;79.52;100289.81;1693745;82;21845;-60
2021/11/24 02:43:01;;;;;;;15.78;12.10;;;;;;;1.06;79.56;100294.22;1703234;83;21589;-61
2021/11/24 02:45:29;;;;;;;14.45;12.50;;;;;;;1.00;79.61;100289.86;1702769;83;21667;-61
2021/11/24 02:47:56;;;;;;;15.00;12.60;;;;;;;0.96;79.91;100298.44;1701686;82;21506;-60
2021/11/24 02:50:23;;;;;;;15.10;12.67;;;;;;;0.94;79.92;100294.57;1697198;83;21775;-61
2021/11/24 02:52:50;;;;;;;13.60;11.48;;;;;;;0.94;79.92;100301.45;1696102;83;21763;-61
2021/11/24 02:55:17;;;;;;;13.60;11.07;;;;;;;1.00;80.02;100296.34;1694555;83;21503;-61
2021/11/24 02:57:47;;;;;;;;;;;;;;;1.16;79.75;100299.88;1700352;83;20991;-61
2021/11/24 03:00:27;;;;;;;12.95;10.08;;;;;;;1.23;79.40;100308.56;1666594;85;20455;-61
2021/11/24 03:02:54;;;;;;;15.45;12.37;;;;;;;1.13;79.46;100313.69;1633519;85;21587;-61
2021/11/24 03:05:25;;;;;;;14.85;11.75;;;;;;;1.06;79.64;100304.58;1639835;85;21760;-61
2021/11/24 03:07:52;;;;;;;13.20;10.93;;;;;;;1.03;79.81;100314.47;1633260;86;21547;-61
2021/11/24 03:10:19;;;;;;;13.50;11.93;;;;;;;1.02;79.87;100314.05;1643070;86;21619;-61
2021/11/24 03:12:46;;;;;;;14.55;10.68;;;;;;;1.13;79.85;100312.39;1669417;83;21074;-61
2021/11/24 03:15:13;;;;;;;14.75;12.43;;;;;;;1.08;79.59;100310.19;1638744;86;21079;-61
2021/11/24 03:17:40;;;;;;;15.70;12.03;;;;;;;0.93;80.02;100312.25;1636910;86;21795;-60
2021/11/24 03:20:09;;;;;;;14.68;11.93;;;;;;;0.84;80.34;100313.47;1615349;87;21403;-60
2021/11/24 03:22:36;;;;;;;15.35;11.48;;;;;;;0.81;80.49;100315.16;1674733;83;21546;-62
2021/11/24 03:25:03;;;;;;;14.97;11.17;;;;;;;0.87;80.75;100315.23;1666704;85;21594;-61
2021/11/24 03:27:35;;;;;;;13.10;11.33;;;;;;;1.01;80.39;100311.00;1666874;85;21488;-61
2021/11/24 03:30:06;;;;;;;14.03;11.20;;;;;;;1.00;80.42;100315.76;1673519;85;21467;-60
2021/11/24 03:32:35;;;;;;;14.63;11.05;;;;;;;0.97;80.43;100316.59;1673996;83;21601;-60
2021/11/24 03:35:02;;;;;;;16.97;11.97;;;;;;;0.95;80.63;100312.27;1675673;83;21483;-60
2021/11/24 03:37:29;;;;;;;14.60;11.28;;;;;;;0.94;80.40;100322.16;1665052;85;29082;-60
2021/11/24 03:39:58;;;;;;;14.33;11.48;;;;;;;0.94;80.55;100328.64;1656815;85;21428;-61
2021/11/24 03:42:25;;;;;;;13.70;11.20;;;;;;;1.04;80.46;100331.75;1672317;83;21701;-60
2021/11/24 03:44:52;;;;;;;18.07;11.80;;;;;;;0.99;80.62;100337.32;1633098;86;21426;-60
2021/11/24 03:47:19;;;;;;;16.10;11.83;;;;;;;0.99;80.62;100337.32;1633384;86;21852;-62
2021/11/24 03:49:46;;;;;;;18.77;11.77;;;;;;;0.96;80.49;100337.28;1667652;85;22022;-61
2021/11/24 03:52:14;;;;;;;15.45;12.13;;;;;;;0.82;80.87;100335.89;1668899;85;21523;-61
2021/11/24 03:54:42;;;;;;;15.08;11.03;;;;;;;0.87;81.04;100343.72;1669086;85;22111;-60
2021/11/24 03:57:09;;;;;;;12.88;10.82;;;;;;;1.01;80.90;100345.11;1672964;85;21546;-61
2021/11/24 03:59:36;;;;;;;14.35;11.12;;;;;;;1.05;80.52;100345.13;1661313;85;21613;-61
2021/11/24 04:02:04;;;;;;;12.33;9.57;;;;;;;0.98;80.58;100340.78;1666909;85;21550;-61
2021/11/24 04:04:31;;;;;;;;;;;;;;;0.93;80.78;100344.61;1673000;83;22123;-61
2021/11/24 04:06:58;;;;;;;13.63;10.03;;;;;;;0.89;80.79;100346.75;1670072;85;22008;-61
2021/11/24 04:09:26;;;;;;;11.22;9.10;;;;;;;0.82;80.85;100342.80;1666593;83;21554;-62
2021/11/24 04:11:52;;;;;;;11.33;9.40;;;;;;;0.90;80.98;100345.87;1636818;86;21496;-60
2021/11/24 04:14:20;;;;;;;10.98;9.88;;;;;;;0.96;80.67;100344.65;1643875;85;21471;-61
2021/11/24 04:16:46;;;;;;;17.67;15.13;;;;;;;0.89;80.66;100348.04;1634081;86;21607;-60
2021/11/24 04:19:13;;;;;;;12.40;9.75;;;;;;;0.85;80.99;100347.98;1633778;86;21520;-61
2021/11/24 04:21:40;;;;;;;20.52;16.00;;;;;;;0.85;80.90;100344.10;1636489;86;21581;-60
2021/11/24 04:24:08;;;;;;;11.65;9.33;;;;;;;0.87;81.02;100344.58;1629266;86;21599;-61
2021/11/24 04:26:35;;;;;;;9.95;8.83;;;;;;;1.00;80.82;100349.83;1636834;86;21545;-61
2021/11/24 04:29:02;;;;;;;11.03;9.27;;;;;;;1.04;80.75;100353.77;1635579;86;21410;-61
2021/11/24 04:31:29;;;;;;;11.55;9.00;;;;;;;1.03;80.66;100354.61;1635925;86;22008;-60
2021/11/24 04:33:56;;;;;;;10.43;9.35;;;;;;;1.01;80.65;100358.91;1641157;86;21516;-61
2021/11/24 04:36:23;;;;;;;9.77;8.27;;;;;;;0.86;80.79;100355.77;1633817;86;21580;-60
2021/11/24 04:38:50;;;;;;;10.25;8.93;;;;;;;0.90;81.03;100360.55;1628397;86;21712;-61
2021/11/24 04:41:17;;;;;;;9.53;8.53;;;;;;;1.00;80.93;100357.20;1626964;86;21524;-61
2021/11/24 04:43:46;;;;;;;11.10;8.98;;;;;;;0.94;80.99;100354.12;1635711;86;22022;-60
2021/11/24 04:46:14;;;;;;;9.48;8.58;;;;;;;0.92;81.03;100362.31;1636382;86;21083;-61
2021/11/24 04:48:41;;;;;;;13.03;9.93;;;;;;;0.90;81.08;100363.14;1608117;87;21631;-61
2021/11/24 04:51:09;;;;;;;10.53;9.43;;;;;;;0.87;81.22;100361.84;1611951;87;21503;-61
2021/11/24 04:53:37;;;;;;;11.03;9.10;;;;;;;0.96;81.27;100357.59;1620794;87;21081;-60
2021/11/24 04:56:04;;;;;;;9.90;8.83;;;;;;;1.01;81.08;100356.32;1623919;87;22126;-61
2021/11/24 04:58:33;;;;;;;10.93;9.53;;;;;;;0.98;80.92;100356.32;1615431;87;21441;-61
2021/11/24 05:01:00;;;;;;;10.90;9.80;;;;;;;0.95;80.94;100354.98;1611653;87;21540;-61
2021/11/24 05:03:27;;;;;;;9.95;8.55;;;;;;;0.94;80.96;100367.48;1619167;87;21534;-61
2021/11/24 05:05:54;;;;;;;10.63;9.50;;;;;;;0.97;81.06;100365.78;1618735;87;21435;-60
2021/11/24 05:08:21;;;;;;;9.83;8.33;;;;;;;1.10;80.89;100368.05;1636828;86;21545;-60
2021/11/24 05:10:49;;;;;;;10.53;9.43;;;;;;;1.11;80.71;100364.62;1641167;86;21534;-61
2021/11/24 05:13:16;;;;;;;11.20;9.95;;;;;;;1.06;80.75;100366.73;1638547;86;21077;-61
2021/11/24 05:15:44;;;;;;;10.08;9.10;;;;;;;1.01;80.83;100375.74;1635744;85;21066;-61
2021/11/24 05:18:21;;;;;;;11.60;9.30;;;;;;;0.99;80.70;100374.87;1641747;85;21479;-60
2021/11/24 05:20:43;;;;;;;10.65;9.55;;;;;;;0.99;80.78;100375.30;1671528;82;21786;-61
2021/11/24 05:24:51;;;;;;;12.30;11.03;;;;;;;1.12;80.78;100383.17;1766006;79;23158;-61
2021/11/24 05:27:19;;;;;;;16.05;14.35;;;;;;;1.06;80.67;100385.72;1733004;81;21038;-62
2021/11/24 05:29:46;;;;;;;30.25;22.22;;;;;;;1.00;80.82;100390.86;1735389;80;21797;-62
2021/11/24 05:32:13;;;;;;;20.75;16.73;;;;;;;0.98;80.90;100393.87;1740879;80;21428;-62
2021/11/24 05:34:41;;;;;;;13.83;12.37;;;;;;;1.03;80.96;100386.98;1741808;81;21562;-62
2021/11/24 05:37:08;;;;;;;13.63;10.93;;;;;;;1.19;80.70;100390.98;1732642;80;21518;-62
2021/11/24 05:39:36;;;;;;;18.42;13.30;;;;;;;1.25;80.49;100396.23;1732807;81;21447;-62
2021/11/24 05:42:04;;;;;;;146.98;83.87;;;;;;;1.24;80.43;100399.66;1733395;81;25730;-62
2021/11/24 05:44:34;;;;;;;40.85;30.10;;;;;;;1.19;80.39;100403.52;1729531;80;21432;-61
2021/11/24 05:47:06;;;;;;;25.05;19.87;;;;;;;1.14;80.37;100403.91;1730529;81;21456;-61
2021/11/24 05:49:30;;;;;;;43.40;27.50;;;;;;;1.19;80.50;100413.00;1736791;81;21084;-62
2021/11/24 05:51:58;;;;;;;31.70;20.57;;;;;;;1.29;80.30;100411.79;1742120;80;21419;-64
2021/11/24 05:54:25;;;;;;;40.13;26.17;;;;;;;1.28;80.20;100410.07;1734410;81;21561;-62
2021/11/24 05:56:52;;;;;;;40.28;28.50;;;;;;;1.22;80.23;100414.33;1735441;81;21609;-63
2021/11/24 05:59:19;;;;;;;25.43;17.10;;;;;;;1.16;80.59;100413.85;1742919;80;21100;-63
2021/11/24 06:01:46;;;;;;;22.13;15.77;;;;;;;1.16;80.62;100415.15;1731308;81;21569;-62
2021/11/24 06:04:13;;;;;;;20.48;13.65;;;;;;;1.20;80.68;100414.75;1741045;80;21475;-62
2021/11/24 06:06:40;;;;;;;19.07;13.80;;;;;;;1.33;80.61;100416.13;1736068;81;21703;-62
2021/11/24 06:09:07;;;;;;;17.13;12.83;;;;;;;1.40;80.51;100415.77;1726734;81;21506;-62
2021/11/24 06:11:34;;;;;;;18.00;13.30;;;;;;;1.40;80.21;100409.28;1738301;81;21612;-62
2021/11/24 06:14:01;;;;;;;15.72;12.40;;;;;;;1.40;80.21;100409.28;1734310;81;21970;-64
2021/11/24 06:16:28;;;;;;;13.98;11.57;;;;;;;1.38;80.40;100414.03;1734218;81;20955;-62
2021/11/24 06:18:56;;;;;;;12.70;11.10;;;;;;;1.44;80.45;100413.63;1741118;80;21789;-61
2021/11/24 06:21:22;;;;;;;13.90;11.33;;;;;;;1.61;80.11;100415.03;1745133;81;21025;-61
2021/11/24 06:23:49;;;;;;;13.93;11.40;;;;;;;1.62;79.95;100413.30;1732039;81;21530;-62
2021/11/24 06:26:19;;;;;;;14.47;10.48;;;;;;;1.64;79.97;100415.46;1738981;81;21494;-61
2021/11/24 06:28:46;;;;;;;13.90;10.55;;;;;;;1.68;79.77;100414.65;1736374;81;21545;-61
2021/11/24 06:31:13;;;;;;;16.77;11.47;;;;;;;1.66;79.50;100422.85;1734437;81;21830;-63
2021/11/24 06:33:40;;;;;;;13.75;11.60;;;;;;;1.65;79.54;100427.14;1741973;81;21553;-62
2021/11/24 06:36:07;;;;;;;14.67;12.30;;;;;;;1.78;79.43;100427.23;1737462;81;21579;-62
2021/11/24 06:38:35;;;;;;;15.83;12.73;;;;;;;1.80;79.36;100429.40;1733958;81;21471;-58
2021/11/24 06:41:03;;;;;;;17.65;14.05;;;;;;;1.75;79.22;100426.77;1728978;81;21436;-57
2021/11/24 06:43:31;;;;;;;19.37;15.58;;;;;;;1.70;79.32;100428.48;1741405;81;21777;-56
2021/11/24 06:45:58;;;;;;;19.30;14.23;;;;;;;1.63;79.44;100429.30;1728102;80;21564;-55
2021/11/24 06:48:25;;;;;;;18.62;14.80;;;;;;;1.61;79.63;100425.84;1735801;81;25787;-55
2021/11/24 17:40:52;;;;;;;14.43;9.45;;;;;;;2.92;65.11;100424.14;1786622;78;23295;-57
2021/11/24 17:43:20;;;;;;;16.12;8.95;;;;;;;2.87;64.62;100421.10;1763577;80;21568;-56
2021/11/24 17:45:48;;;;;;;14.23;8.63;;;;;;;2.81;64.85;100419.36;1765940;80;22131;-56
2021/11/24 17:48:15;;;;;;;11.08;9.10;;;;;;;2.78;65.04;100412.86;1762306;80;21521;-58
2021/11/24 17:50:43;;;;;;;13.03;9.18;;;;;;;2.77;65.05;100409.84;1756435;80;21518;-58
2021/11/24 17:53:10;;;;;;;11.90;8.73;;;;;;;2.78;65.10;100408.96;1759601;80;21528;-58
2021/11/24 17:55:37;;;;;;;12.10;8.78;;;;;;;2.76;64.95;100415.03;1758026;80;21537;-59
2021/11/24 17:58:05;;;;;;;13.32;8.85;;;;;;;2.73;64.99;100414.16;1760756;80;21778;-59
2021/11/24 18:00:33;;;;;;;11.12;8.60;;;;;;;2.76;64.81;100418.92;1760797;80;21629;-65
2021/11/24 18:03:00;;;;;;;9.80;8.23;;;;;;;2.75;64.66;100423.26;1765075;80;21661;-58
2021/11/24 18:05:27;;;;;;;11.78;8.55;;;;;;;2.75;64.54;100415.88;1758080;80;21597;-59
2021/11/24 18:07:54;;;;;;;12.95;8.75;;;;;;;2.77;64.36;100423.23;1757863;80;21735;-58
2021/11/24 18:10:22;;;;;;;;;;;;;;;2.73;64.60;100423.25;1763640;80;22000;-61
2021/11/24 18:12:49;;;;;;;12.33;8.50;;;;;;;2.73;64.50;100414.57;1762030;80;20459;-58
2021/11/24 18:15:18;;;;;;;12.53;9.08;;;;;;;2.66;64.40;100418.91;1760616;80;21825;-57
2021/11/24 18:17:45;;;;;;;;;;;;;;;2.65;64.42;100418.89;1761789;80;21574;-59
2021/11/24 18:20:13;;;;;;;13.43;10.43;;;;;;;2.64;64.33;100414.14;1759871;80;20434;-58
2021/11/24 18:22:42;;;;;;;12.88;10.18;;;;;;;2.58;64.49;100410.25;1760560;80;21792;-57
2021/11/24 18:25:11;;;;;;;13.55;9.40;;;;;;;2.60;64.67;100414.12;1757160;80;21490;-57
2021/11/24 18:27:39;;;;;;;14.43;9.50;;;;;;;2.61;64.78;100408.08;1749279;80;21107;-58
2021/11/24 18:30:07;;;;;;;12.40;8.35;;;;;;;2.60;64.96;100420.20;1761713;80;21502;-58
2021/11/24 18:32:34;;;;;;;11.20;8.15;;;;;;;2.63;64.67;100406.34;1762730;80;21431;-56
2021/11/24 18:35:01;;;;;;;13.63;8.17;;;;;;;2.62;64.63;100409.38;1760956;80;21796;-56
2021/11/24 18:37:28;;;;;;;10.20;8.05;;;;;;;2.60;64.81;100411.52;1768539;80;21604;-56
2021/11/24 18:39:57;;;;;;;10.90;7.45;;;;;;;2.60;64.96;100408.92;1759831;80;21495;-56
2021/11/24 18:42:25;;;;;;;11.78;8.70;;;;;;;2.59;64.86;100408.51;1754110;80;21002;-56
2021/11/24 18:44:52;;;;;;;9.95;7.78;;;;;;;2.60;64.82;100408.92;1760425;80;21420;-56
2021/11/24 18:47:19;;;;;;;11.87;7.40;;;;;;;2.62;64.70;100404.19;1766971;80;21447;-56
2021/11/24 18:49:46;;;;;;;10.00;7.90;;;;;;;2.57;64.79;100407.20;1760497;80;21546;-56
2021/11/24 18:52:13;;;;;;;10.55;7.83;;;;;;;2.57;64.91;100402.45;1760993;80;21597;-56
2021/11/24 18:54:40;;;;;;;12.90;7.53;;;;;;;2.54;65.03;100403.28;1755677;80;21564;-56
2021/11/24 18:57:09;;;;;;;8.38;7.25;;;;;;;2.55;64.81;100406.77;1753807;80;21399;-56
2021/11/24 18:59:37;;;;;;;9.75;7.20;;;;;;;2.57;64.93;100402.45;1757604;80;21431;-55
2021/11/24 19:02:05;;;;;;;11.12;7.72;;;;;;;2.57;64.80;100402.45;1756038;80;21525;-55
2021/11/24 19:04:32;;;;;;;9.50;7.40;;;;;;;2.56;64.72;100404.16;1756320;80;21535;-55
2021/11/24 19:07:00;;;;;;;10.05;7.35;;;;;;;2.56;64.68;100400.26;1764167;80;21491;-56
2021/11/24 19:09:27;;;;;;;8.60;7.53;;;;;;;2.58;64.49;100410.66;1752433;80;21504;-56
2021/11/24 19:11:54;;;;;;;9.15;7.55;;;;;;;2.56;64.71;100402.86;1767407;80;21804;-56
2021/11/24 19:14:21;;;;;;;;;;;;;;;2.56;64.71;100402.86;1759772;80;21491;-56
2021/11/24 19:16:50;;;;;;;8.55;6.45;;;;;;;2.55;64.60;100403.73;1753704;80;20508;-56
2021/11/24 19:19:17;;;;;;;11.78;9.43;;;;;;;2.51;64.66;100406.75;1756986;80;21471;-57
2021/11/24 19:21:45;;;;;;;12.15;9.35;;;;;;;2.51;64.72;100411.95;1756071;80;21042;-56
2021/11/24 19:24:12;;;;;;;16.32;10.90;;;;;;;2.50;64.82;100403.70;1686248;83;21496;-55
2021/11/24 19:26:40;;;;;;;10.40;8.13;;;;;;;2.55;64.78;100398.98;1763962;80;21439;-56
2021/11/24 19:29:07;;;;;;;12.68;9.25;;;;;;;2.55;64.62;100396.39;1755165;80;21451;-56
2021/11/24 19:31:34;;;;;;;12.85;8.65;;;;;;;2.57;64.65;100396.81;1755326;80;21597;-57
2021/11/24 19:34:02;;;;;;;9.90;8.03;;;;;;;2.57;64.76;100398.55;1762837;80;21546;-56
2021/11/24 19:36:29;;;;;;;12.03;8.70;;;;;;;2.59;64.60;100397.68;1750001;80;22101;-56
2021/11/24 19:38:56;;;;;;;10.50;8.28;;;;;;;2.59;64.43;100399.42;1710247;82;21463;-58
2021/11/24 19:41:23;;;;;;;19.48;8.98;;;;;;;2.56;64.65;100397.66;1753096;80;21928;-56
2021/11/24 19:43:51;;;;;;;9.90;7.87;;;;;;;2.58;64.65;100393.78;1755497;80;21511;-58
2021/11/24 19:46:18;;;;;;;10.25;8.15;;;;;;;2.55;64.71;100387.30;1755496;80;21459;-56
2021/11/24 19:48:45;;;;;;;12.63;8.38;;;;;;;2.54;64.45;100390.30;1749845;80;22490;-58
2021/11/24 19:51:13;;;;;;;11.60;8.38;;;;;;;2.48;64.74;100392.45;1754995;80;21719;-57
2021/11/24 19:53:41;;;;;;;13.68;8.15;;;;;;;2.48;64.71;100395.05;1749747;80;21652;-57
2021/11/24 19:56:13;;;;;;;;;;;;;;;2.46;64.77;100401.12;1754781;80;21534;-56
2021/11/24 19:58:39;;;;;;;9.40;7.83;;;;;;;2.44;64.99;100401.55;1754830;80;20506;-57
2021/11/24 20:01:05;;;;;;;10.25;8.15;;;;;;;2.42;64.96;100405.88;1745473;80;21884;-56
2021/11/24 20:03:33;;;;;;;12.07;8.15;;;;;;;2.40;65.14;100403.70;1716106;82;25699;-56
2021/11/24 20:06:00;;;;;;;10.00;8.03;;;;;;;2.40;65.29;100403.27;1716149;82;21574;-55
2021/11/24 20:08:27;;;;;;;10.48;7.97;;;;;;;2.42;65.31;100397.64;1749401;80;21521;-56
2021/11/24 20:10:54;;;;;;;9.25;7.40;;;;;;;2.45;65.24;100401.97;1752702;80;21549;-56
2021/11/24 20:13:21;;;;;;;10.93;8.50;;;;;;;2.46;65.13;100401.12;1758513;80;22004;-56
2021/11/24 20:15:51;;;;;;;12.35;8.78;;;;;;;2.44;65.23;100402.84;1754930;80;21491;-56
2021/11/24 20:18:18;;;;;;;10.03;7.87;;;;;;;2.44;65.14;100398.95;1756205;80;21455;-58
2021/11/24 20:20:46;;;;;;;11.05;8.70;;;;;;;2.42;65.34;100405.43;1754570;80;21451;-56
2021/11/24 20:23:13;;;;;;;12.07;8.38;;;;;;;2.43;65.22;100404.58;1749054;80;21438;-57
2021/11/24 20:25:44;;;;;;;9.03;8.08;;;;;;;2.42;65.14;100406.73;1761159;80;22019;-56
2021/11/24 20:28:14;;;;;;;10.93;8.55;;;;;;;2.41;65.09;100406.31;1758565;80;21562;-56
2021/11/24 20:30:38;;;;;;;10.75;8.45;;;;;;;2.35;65.40;100402.38;1755597;80;20946;-56
2021/11/24 20:33:06;;;;;;;10.20;9.13;;;;;;;2.33;65.34;100402.37;1726726;82;21551;-55
2021/11/24 20:35:33;;;;;;;10.53;8.38;;;;;;;2.30;65.41;100398.48;1752890;80;21443;-55
2021/11/24 20:38:04;;;;;;;12.68;9.73;;;;;;;2.33;65.43;100397.61;1759806;80;21475;-55
2021/11/24 20:40:31;;;;;;;13.88;8.68;;;;;;;2.33;65.25;100391.98;1754117;80;21479;-57
2021/11/24 20:42:59;;;;;;;11.70;8.70;;;;;;;2.34;65.22;100392.87;1757054;80;21649;-56
2021/11/24 20:45:26;;;;;;;11.90;8.93;;;;;;;2.35;65.41;100395.89;1747993;80;21587;-55
2021/11/24 20:47:53;;;;;;;14.90;9.43;;;;;;;2.36;65.26;100401.97;1757877;80;21472;-55
2021/11/24 20:50:22;;;;;;;9.90;8.05;;;;;;;2.35;65.25;100395.89;1769286;80;21830;-56
2021/11/24 20:52:49;;;;;;;17.07;8.63;;;;;;;2.36;65.02;100398.94;1755999;79;21597;-56
2021/11/24 20:55:16;;;;;;;11.38;8.25;;;;;;;2.36;65.08;100394.19;1758700;80;21513;-56
2021/11/24 20:57:44;;;;;;;9.68;7.83;;;;;;;2.33;65.08;100391.98;1719869;82;21553;-56
2021/11/24 21:00:13;;;;;;;8.50;7.70;;;;;;;2.32;64.96;100392.01;1715799;82;21438;-56
2021/11/24 21:02:40;;;;;;;11.25;8.05;;;;;;;2.31;64.97;100387.66;1685665;83;21768;-56
2021/11/24 21:05:08;;;;;;;;;;;;;;;2.30;65.14;100392.44;1706958;82;21621;-56
2021/11/24 21:07:35;;;;;;;9.40;7.58;;;;;;;2.29;65.38;100390.69;1701762;82;20457;-56
2021/11/24 21:10:04;;;;;;;;;;;;;;;2.27;65.37;100388.52;1722280;82;21516;-56
2021/11/24 21:12:33;;;;;;;14.15;7.55;;;;;;;2.28;65.25;100388.94;1722628;82;20419;-56
2021/11/24 21:14:59;;;;;;;10.83;7.30;;;;;;;2.23;65.52;100390.68;1720452;82;22110;-56
2021/11/24 21:17:26;;;;;;;11.47;7.03;;;;;;;2.25;65.48;100389.81;1686699;83;21613;-56
2021/11/24 21:19:53;;;;;;;9.43;7.63;;;;;;;2.26;65.63;100392.86;1703879;82;21652;-56
2021/11/24 21:22:21;;;;;;;11.30;8.20;;;;;;;2.28;65.57;100391.12;1696389;83;21591;-57
2021/11/24 21:24:48;;;;;;;9.43;7.47;;;;;;;2.30;65.71;100398.48;1699924;83;21530;-56
2021/11/24 21:27:16;;;;;;;8.88;7.30;;;;;;;2.32;65.65;100396.76;1685710;83;21775;-56
2021/11/24 21:29:43;;;;;;;12.47;7.30;;;;;;;2.30;65.56;100397.63;1702650;82;21523;-56
2021/11/24 21:32:12;;;;;;;8.30;6.80;;;;;;;2.30;65.80;100398.48;1719464;82;21519;-56
2021/11/24 21:34:40;;;;;;;8.53;7.42;;;;;;;2.32;65.62;100398.50;1702089;82;21523;-57
2021/11/24 21:37:07;;;;;;;10.35;7.83;;;;;;;2.33;65.37;100395.02;1703045;83;21502;-57
2021/11/24 21:39:35;;;;;;;;;;;;;;;2.34;65.38;100398.06;1716332;82;21752;-57
2021/11/24 21:42:02;;;;;;;12.07;7.97;;;;;;;2.31;65.37;100393.71;1708613;82;20400;-56
2021/11/24 21:44:29;;;;;;;9.65;7.53;;;;;;;2.30;65.45;100396.33;1715267;82;27539;-56
2021/11/24 21:46:56;;;;;;;8.83;7.53;;;;;;;2.29;65.55;100395.88;1701771;82;21522;-55
2021/11/24 21:49:24;;;;;;;9.15;7.90;;;;;;;2.30;65.28;100394.59;1705127;82;21426;-56
2021/11/24 21:51:51;;;;;;;9.37;7.90;;;;;;;2.29;65.40;100392.84;1718435;82;22051;-56
2021/11/24 21:54:19;;;;;;;9.80;7.80;;;;;;;2.29;65.26;100394.14;1715238;82;21565;-56
2021/11/24 21:56:46;;;;;;;9.75;8.03;;;;;;;2.29;65.43;100392.84;1685347;82;21033;-56
2021/11/24 21:59:14;;;;;;;11.43;8.23;;;;;;;2.31;65.32;100385.92;1711828;82;21450;-60
2021/11/24 22:01:42;;;;;;;13.78;9.03;;;;;;;2.29;65.49;100385.06;1697406;83;21486;-60
2021/11/24 22:04:09;;;;;;;12.05;9.23;;;;;;;2.30;65.36;100382.91;1696319;82;21581;-59
2021/11/24 22:12:08;;;;;;;11.15;9.38;;;;;;;2.26;65.50;100383.77;1706780;83;21503;-59
2021/11/24 22:14:36;;;;;;;10.38;9.25;;;;;;;2.24;65.63;100387.20;1719950;82;21556;-59
2021/11/24 22:17:06;;;;;;;11.65;9.00;;;;;;;2.24;65.65;100384.20;1689237;83;21810;-60
2021/11/24 22:19:33;;;;;;;14.40;9.68;;;;;;;2.25;65.71;100384.62;1695911;83;21603;-59
2021/11/24 22:22:00;;;;;;;12.25;10.15;;;;;;;2.25;65.73;100387.22;1705509;82;21578;-60